sensor_id;sensor_type;location;lat;lon;timestamp;P1;durP1;ratioP1;P2;durP2;ratioP2
65691;SDS011;52411;52.716;6.696;2022-10-30T00:01:55;23.23;;;12.73;;
65691;SDS011;52411;52.716;6.696;2022-10-30T00:04:20;27.02;;;13.32;;
65691;SDS011;52411;52.716;6.696;2022-10-30T00:06:47;24.42;;;13.15;;
65691;SDS011;52411;52.716;6.696;2022-10-30T00:09:13;25.23;;;12.57;;
65691;SDS011;52411;52.716;6.696;2022-10-30T00:11:39;34.00;;;13.60;;
65691;SDS011;52411;52.716;6.696;2022-10-30T00:14:05;25.30;;;12.82;;
65691;SDS011;52411;52.716;6.696;2022-10-30T00:16:31;26.90;;;12.93;;
65691;SDS011;52411;52.716;6.696;2022-10-30T00:18:57;27.58;;;13.35;;
65691;SDS011;52411;52.716;6.696;2022-10-30T00:21:22;29.58;;;12.93;;
65691;SDS011;52411;52.716;6.696;2022-10-30T00:23:49;32.15;;;14.05;;
65691;SDS011;52411;52.716;6.696;2022-10-30T00:26:16;25.63;;;12.70;;
65691;SDS011;52411;52.716;6.696;2022-10-30T00:28:42;30.73;;;13.70;;
65691;SDS011;52411;52.716;6.696;2022-10-30T00:31:08;28.77;;;13.18;;
65691;SDS011;52411;52.716;6.696;2022-10-30T00:33:33;27.35;;;13.77;;
65691;SDS011;52411;52.716;6.696;2022-10-30T00:35:59;27.55;;;14.15;;
65691;SDS011;52411;52.716;6.696;2022-10-30T00:38:25;30.10;;;12.80;;
65691;SDS011;52411;52.716;6.696;2022-10-30T00:40:51;25.45;;;13.07;;
65691;SDS011;52411;52.716;6.696;2022-10-30T00:43:27;28.92;;;13.50;;
65691;SDS011;52411;52.716;6.696;2022-10-30T00:46:47;21.85;;;13.00;;
65691;SDS011;52411;52.716;6.696;2022-10-30T00:48:58;26.23;;;13.07;;
65691;SDS011;52411;52.716;6.696;2022-10-30T00:51:29;24.80;;;13.35;;
65691;SDS011;52411;52.716;6.696;2022-10-30T00:53:58;26.10;;;13.48;;
65691;SDS011;52411;52.716;6.696;2022-10-30T00:56:25;23.98;;;13.48;;
65691;SDS011;52411;52.716;6.696;2022-10-30T00:58:56;25.48;;;12.82;;
65691;SDS011;52411;52.716;6.696;2022-10-30T01:01:26;24.98;;;12.52;;
65691;SDS011;52411;52.716;6.696;2022-10-30T01:03:56;26.08;;;13.05;;
65691;SDS011;52411;52.716;6.696;2022-10-30T01:06:23;26.13;;;13.13;;
65691;SDS011;52411;52.716;6.696;2022-10-30T01:08:50;21.55;;;12.25;;
65691;SDS011;52411;52.716;6.696;2022-10-30T01:11:18;24.88;;;13.13;;
65691;SDS011;52411;52.716;6.696;2022-10-30T01:13:43;23.55;;;12.18;;
65691;SDS011;52411;52.716;6.696;2022-10-30T01:19:11;23.42;;;11.95;;
65691;SDS011;52411;52.716;6.696;2022-10-30T01:22:06;21.33;;;11.77;;
65691;SDS011;52411;52.716;6.696;2022-10-30T01:24:45;25.30;;;13.70;;
65691;SDS011;52411;52.716;6.696;2022-10-30T01:27:25;22.73;;;12.57;;
65691;SDS011;52411;52.716;6.696;2022-10-30T01:35:48;24.02;;;11.75;;
65691;SDS011;52411;52.716;6.696;2022-10-30T01:38:30;22.27;;;12.15;;
65691;SDS011;52411;52.716;6.696;2022-10-30T01:41:00;28.20;;;13.23;;
65691;SDS011;52411;52.716;6.696;2022-10-30T01:43:26;24.02;;;13.98;;
65691;SDS011;52411;52.716;6.696;2022-10-30T01:49:19;28.48;;;14.38;;
65691;SDS011;52411;52.716;6.696;2022-10-30T01:54:36;25.27;;;12.75;;
65691;SDS011;52411;52.716;6.696;2022-10-30T01:57:16;27.67;;;13.57;;
65691;SDS011;52411;52.716;6.696;2022-10-30T02:00:05;37.17;;;12.90;;
65691;SDS011;52411;52.716;6.696;2022-10-30T02:02:33;28.98;;;13.57;;
65691;SDS011;52411;52.716;6.696;2022-10-30T02:04:59;30.55;;;13.60;;
65691;SDS011;52411;52.716;6.696;2022-10-30T02:07:25;24.73;;;12.93;;
65691;SDS011;52411;52.716;6.696;2022-10-30T02:09:51;35.70;;;13.95;;
65691;SDS011;52411;52.716;6.696;2022-10-30T02:12:18;26.55;;;13.15;;
65691;SDS011;52411;52.716;6.696;2022-10-30T02:14:46;25.80;;;13.57;;
65691;SDS011;52411;52.716;6.696;2022-10-30T02:17:14;26.00;;;12.57;;
65691;SDS011;52411;52.716;6.696;2022-10-30T02:19:41;22.60;;;13.35;;
65691;SDS011;52411;52.716;6.696;2022-10-30T02:22:07;30.50;;;14.15;;
65691;SDS011;52411;52.716;6.696;2022-10-30T02:24:32;22.48;;;13.70;;
65691;SDS011;52411;52.716;6.696;2022-10-30T02:26:58;21.05;;;13.20;;
65691;SDS011;52411;52.716;6.696;2022-10-30T02:29:24;25.30;;;13.13;;
65691;SDS011;52411;52.716;6.696;2022-10-30T02:31:50;25.38;;;12.45;;
65691;SDS011;52411;52.716;6.696;2022-10-30T02:34:16;26.55;;;13.82;;
65691;SDS011;52411;52.716;6.696;2022-10-30T02:36:41;24.90;;;13.32;;
65691;SDS011;52411;52.716;6.696;2022-10-30T02:39:07;30.20;;;13.20;;
65691;SDS011;52411;52.716;6.696;2022-10-30T02:41:33;26.77;;;13.32;;
65691;SDS011;52411;52.716;6.696;2022-10-30T02:43:58;26.35;;;12.68;;
65691;SDS011;52411;52.716;6.696;2022-10-30T02:46:24;23.23;;;12.68;;
65691;SDS011;52411;52.716;6.696;2022-10-30T02:48:49;24.55;;;12.10;;
65691;SDS011;52411;52.716;6.696;2022-10-30T02:51:15;25.52;;;12.82;;
65691;SDS011;52411;52.716;6.696;2022-10-30T02:53:41;26.98;;;12.93;;
65691;SDS011;52411;52.716;6.696;2022-10-30T02:56:07;22.60;;;12.48;;
65691;SDS011;52411;52.716;6.696;2022-10-30T02:58:35;24.55;;;12.52;;
65691;SDS011;52411;52.716;6.696;2022-10-30T03:01:19;25.23;;;12.57;;
65691;SDS011;52411;52.716;6.696;2022-10-30T03:03:44;23.77;;;11.93;;
65691;SDS011;52411;52.716;6.696;2022-10-30T03:06:11;24.23;;;12.50;;
65691;SDS011;52411;52.716;6.696;2022-10-30T03:08:39;28.85;;;12.82;;
65691;SDS011;52411;52.716;6.696;2022-10-30T03:11:07;25.13;;;12.32;;
65691;SDS011;52411;52.716;6.696;2022-10-30T03:13:35;26.63;;;12.90;;
65691;SDS011;52411;52.716;6.696;2022-10-30T03:16:02;25.73;;;13.00;;
65691;SDS011;52411;52.716;6.696;2022-10-30T03:18:31;24.23;;;13.02;;
65691;SDS011;52411;52.716;6.696;2022-10-30T03:20:57;27.20;;;13.27;;
65691;SDS011;52411;52.716;6.696;2022-10-30T03:23:24;22.20;;;13.10;;
65691;SDS011;52411;52.716;6.696;2022-10-30T03:25:51;27.48;;;13.73;;
65691;SDS011;52411;52.716;6.696;2022-10-30T03:28:18;23.40;;;13.15;;
65691;SDS011;52411;52.716;6.696;2022-10-30T03:30:44;27.92;;;12.82;;
65691;SDS011;52411;52.716;6.696;2022-10-30T03:33:09;22.70;;;13.15;;
65691;SDS011;52411;52.716;6.696;2022-10-30T03:35:35;32.65;;;13.45;;
65691;SDS011;52411;52.716;6.696;2022-10-30T03:38:00;30.13;;;13.38;;
65691;SDS011;52411;52.716;6.696;2022-10-30T03:40:26;24.77;;;12.63;;
65691;SDS011;52411;52.716;6.696;2022-10-30T03:42:52;25.40;;;13.73;;
65691;SDS011;52411;52.716;6.696;2022-10-30T03:45:17;20.40;;;12.48;;
65691;SDS011;52411;52.716;6.696;2022-10-30T03:47:43;26.90;;;13.07;;
65691;SDS011;52411;52.716;6.696;2022-10-30T03:50:08;26.40;;;13.13;;
65691;SDS011;52411;52.716;6.696;2022-10-30T03:52:34;24.08;;;12.68;;
65691;SDS011;52411;52.716;6.696;2022-10-30T03:55:00;22.92;;;13.25;;
65691;SDS011;52411;52.716;6.696;2022-10-30T03:57:25;25.23;;;12.85;;
65691;SDS011;52411;52.716;6.696;2022-10-30T03:59:51;23.33;;;13.80;;
65691;SDS011;52411;52.716;6.696;2022-10-30T04:02:16;20.60;;;12.68;;
65691;SDS011;52411;52.716;6.696;2022-10-30T04:04:42;26.73;;;13.65;;
65691;SDS011;52411;52.716;6.696;2022-10-30T04:07:07;28.85;;;13.40;;
65691;SDS011;52411;52.716;6.696;2022-10-30T04:09:33;31.48;;;13.75;;
65691;SDS011;52411;52.716;6.696;2022-10-30T04:11:58;27.63;;;12.73;;
65691;SDS011;52411;52.716;6.696;2022-10-30T04:14:24;21.65;;;12.88;;
65691;SDS011;52411;52.716;6.696;2022-10-30T04:16:50;22.63;;;13.25;;
65691;SDS011;52411;52.716;6.696;2022-10-30T04:19:15;34.00;;;14.02;;
65691;SDS011;52411;52.716;6.696;2022-10-30T04:21:41;25.85;;;14.52;;
65691;SDS011;52411;52.716;6.696;2022-10-30T04:24:07;26.20;;;14.18;;
65691;SDS011;52411;52.716;6.696;2022-10-30T04:26:33;26.10;;;13.57;;
65691;SDS011;52411;52.716;6.696;2022-10-30T04:28:59;24.13;;;13.10;;
65691;SDS011;52411;52.716;6.696;2022-10-30T04:31:24;27.80;;;13.30;;
65691;SDS011;52411;52.716;6.696;2022-10-30T04:33:50;24.20;;;13.85;;
65691;SDS011;52411;52.716;6.696;2022-10-30T04:36:16;26.00;;;13.82;;
65691;SDS011;52411;52.716;6.696;2022-10-30T04:38:42;28.77;;;13.75;;
65691;SDS011;52411;52.716;6.696;2022-10-30T04:41:08;27.70;;;13.18;;
65691;SDS011;52411;52.716;6.696;2022-10-30T04:43:33;27.15;;;14.35;;
65691;SDS011;52411;52.716;6.696;2022-10-30T04:46:02;28.65;;;14.38;;
65691;SDS011;52411;52.716;6.696;2022-10-30T04:48:29;24.60;;;13.48;;
65691;SDS011;52411;52.716;6.696;2022-10-30T04:50:57;31.85;;;14.05;;
65691;SDS011;52411;52.716;6.696;2022-10-30T04:53:23;26.35;;;14.38;;
65691;SDS011;52411;52.716;6.696;2022-10-30T04:55:51;30.35;;;14.25;;
65691;SDS011;52411;52.716;6.696;2022-10-30T04:58:17;29.35;;;15.40;;
65691;SDS011;52411;52.716;6.696;2022-10-30T05:00:43;28.98;;;14.20;;
65691;SDS011;52411;52.716;6.696;2022-10-30T05:03:10;28.10;;;15.15;;
65691;SDS011;52411;52.716;6.696;2022-10-30T05:05:59;26.67;;;14.33;;
65691;SDS011;52411;52.716;6.696;2022-10-30T05:08:27;29.35;;;15.07;;
65691;SDS011;52411;52.716;6.696;2022-10-30T05:10:53;30.30;;;15.15;;
65691;SDS011;52411;52.716;6.696;2022-10-30T05:13:20;29.35;;;14.77;;
65691;SDS011;52411;52.716;6.696;2022-10-30T05:15:46;26.17;;;13.77;;
65691;SDS011;52411;52.716;6.696;2022-10-30T05:18:11;33.00;;;14.15;;
65691;SDS011;52411;52.716;6.696;2022-10-30T05:20:37;23.42;;;11.82;;
65691;SDS011;52411;52.716;6.696;2022-10-30T05:23:03;24.65;;;12.77;;
65691;SDS011;52411;52.716;6.696;2022-10-30T05:25:29;23.13;;;12.25;;
65691;SDS011;52411;52.716;6.696;2022-10-30T05:27:58;21.90;;;12.48;;
65691;SDS011;52411;52.716;6.696;2022-10-30T05:30:25;27.15;;;13.95;;
65691;SDS011;52411;52.716;6.696;2022-10-30T05:32:56;20.38;;;13.15;;
65691;SDS011;52411;52.716;6.696;2022-10-30T05:35:25;29.23;;;12.32;;
65691;SDS011;52411;52.716;6.696;2022-10-30T05:37:51;27.80;;;14.63;;
65691;SDS011;52411;52.716;6.696;2022-10-30T05:40:17;26.50;;;15.32;;
65691;SDS011;52411;52.716;6.696;2022-10-30T05:42:46;27.75;;;14.25;;
65691;SDS011;52411;52.716;6.696;2022-10-30T05:45:12;27.58;;;13.88;;
65691;SDS011;52411;52.716;6.696;2022-10-30T05:47:38;26.48;;;13.90;;
65691;SDS011;52411;52.716;6.696;2022-10-30T05:50:04;25.20;;;15.18;;
65691;SDS011;52411;52.716;6.696;2022-10-30T05:52:30;32.65;;;15.35;;
65691;SDS011;52411;52.716;6.696;2022-10-30T05:54:56;26.77;;;14.32;;
65691;SDS011;52411;52.716;6.696;2022-10-30T05:57:22;27.45;;;15.35;;
65691;SDS011;52411;52.716;6.696;2022-10-30T05:59:47;27.70;;;14.35;;
65691;SDS011;52411;52.716;6.696;2022-10-30T06:02:13;28.92;;;14.25;;
65691;SDS011;52411;52.716;6.696;2022-10-30T06:04:40;23.80;;;14.77;;
65691;SDS011;52411;52.716;6.696;2022-10-30T06:07:06;28.63;;;16.45;;
65691;SDS011;52411;52.716;6.696;2022-10-30T06:09:31;28.52;;;16.15;;
65691;SDS011;52411;52.716;6.696;2022-10-30T06:11:57;28.52;;;17.50;;
65691;SDS011;52411;52.716;6.696;2022-10-30T06:14:23;34.05;;;17.13;;
65691;SDS011;52411;52.716;6.696;2022-10-30T06:16:48;35.92;;;17.48;;
65691;SDS011;52411;52.716;6.696;2022-10-30T06:19:14;40.88;;;17.48;;
65691;SDS011;52411;52.716;6.696;2022-10-30T06:21:40;29.60;;;16.80;;
65691;SDS011;52411;52.716;6.696;2022-10-30T06:24:05;31.85;;;16.38;;
65691;SDS011;52411;52.716;6.696;2022-10-30T06:26:31;35.63;;;17.33;;
65691;SDS011;52411;52.716;6.696;2022-10-30T06:28:57;35.53;;;17.60;;
65691;SDS011;52411;52.716;6.696;2022-10-30T06:31:22;30.10;;;16.80;;
65691;SDS011;52411;52.716;6.696;2022-10-30T06:33:48;38.50;;;17.55;;
65691;SDS011;52411;52.716;6.696;2022-10-30T06:36:13;34.03;;;17.10;;
65691;SDS011;52411;52.716;6.696;2022-10-30T06:38:41;36.53;;;16.95;;
65691;SDS011;52411;52.716;6.696;2022-10-30T06:41:07;33.25;;;17.13;;
65691;SDS011;52411;52.716;6.696;2022-10-30T06:43:33;31.17;;;15.82;;
65691;SDS011;52411;52.716;6.696;2022-10-30T06:45:59;29.30;;;15.95;;
65691;SDS011;52411;52.716;6.696;2022-10-30T06:48:24;36.42;;;16.70;;
65691;SDS011;52411;52.716;6.696;2022-10-30T06:50:53;30.08;;;16.30;;
65691;SDS011;52411;52.716;6.696;2022-10-30T06:53:20;30.25;;;16.23;;
65691;SDS011;52411;52.716;6.696;2022-10-30T06:55:52;31.67;;;17.23;;
65691;SDS011;52411;52.716;6.696;2022-10-30T06:58:25;29.10;;;16.30;;
65691;SDS011;52411;52.716;6.696;2022-10-30T07:00:51;24.95;;;16.48;;
65691;SDS011;52411;52.716;6.696;2022-10-30T07:03:17;31.20;;;16.70;;
65691;SDS011;52411;52.716;6.696;2022-10-30T07:05:43;36.95;;;17.52;;
65691;SDS011;52411;52.716;6.696;2022-10-30T07:08:09;34.80;;;17.40;;
65691;SDS011;52411;52.716;6.696;2022-10-30T07:10:35;36.60;;;17.80;;
65691;SDS011;52411;52.716;6.696;2022-10-30T07:13:00;31.00;;;16.55;;
65691;SDS011;52411;52.716;6.696;2022-10-30T07:15:26;36.15;;;17.30;;
65691;SDS011;52411;52.716;6.696;2022-10-30T07:17:56;31.08;;;16.77;;
65691;SDS011;52411;52.716;6.696;2022-10-30T07:20:23;37.70;;;18.45;;
65691;SDS011;52411;52.716;6.696;2022-10-30T07:22:50;33.63;;;17.80;;
65691;SDS011;52411;52.716;6.696;2022-10-30T07:25:16;34.75;;;19.33;;
65691;SDS011;52411;52.716;6.696;2022-10-30T07:27:47;36.70;;;18.77;;
65691;SDS011;52411;52.716;6.696;2022-10-30T07:30:15;34.38;;;18.17;;
65691;SDS011;52411;52.716;6.696;2022-10-30T07:32:42;33.42;;;17.90;;
65691;SDS011;52411;52.716;6.696;2022-10-30T07:35:08;35.53;;;19.52;;
65691;SDS011;52411;52.716;6.696;2022-10-30T07:37:36;39.45;;;18.90;;
65691;SDS011;52411;52.716;6.696;2022-10-30T07:40:02;35.75;;;18.30;;
65691;SDS011;52411;52.716;6.696;2022-10-30T07:42:28;37.72;;;18.65;;
65691;SDS011;52411;52.716;6.696;2022-10-30T07:44:54;41.50;;;20.30;;
65691;SDS011;52411;52.716;6.696;2022-10-30T07:47:19;39.20;;;19.85;;
65691;SDS011;52411;52.716;6.696;2022-10-30T07:49:45;40.15;;;19.55;;
65691;SDS011;52411;52.716;6.696;2022-10-30T07:52:10;40.08;;;19.52;;
65691;SDS011;52411;52.716;6.696;2022-10-30T07:54:36;34.47;;;19.77;;
65691;SDS011;52411;52.716;6.696;2022-10-30T07:57:02;33.42;;;19.80;;
65691;SDS011;52411;52.716;6.696;2022-10-30T07:59:27;34.65;;;19.35;;
65691;SDS011;52411;52.716;6.696;2022-10-30T08:01:53;35.13;;;19.88;;
65691;SDS011;52411;52.716;6.696;2022-10-30T08:04:19;33.85;;;19.38;;
65691;SDS011;52411;52.716;6.696;2022-10-30T08:06:44;34.33;;;20.48;;
65691;SDS011;52411;52.716;6.696;2022-10-30T08:09:10;40.63;;;19.85;;
65691;SDS011;52411;52.716;6.696;2022-10-30T08:11:35;34.70;;;20.42;;
65691;SDS011;52411;52.716;6.696;2022-10-30T08:14:01;31.67;;;19.88;;
65691;SDS011;52411;52.716;6.696;2022-10-30T08:16:27;33.67;;;20.63;;
65691;SDS011;52411;52.716;6.696;2022-10-30T08:18:52;36.95;;;20.35;;
65691;SDS011;52411;52.716;6.696;2022-10-30T08:21:18;39.88;;;20.80;;
65691;SDS011;52411;52.716;6.696;2022-10-30T08:23:44;37.70;;;20.45;;
65691;SDS011;52411;52.716;6.696;2022-10-30T08:26:10;37.30;;;20.42;;
65691;SDS011;52411;52.716;6.696;2022-10-30T08:28:35;38.70;;;21.13;;
65691;SDS011;52411;52.716;6.696;2022-10-30T08:31:01;34.55;;;20.73;;
65691;SDS011;52411;52.716;6.696;2022-10-30T08:33:27;40.65;;;19.17;;
65691;SDS011;52411;52.716;6.696;2022-10-30T08:35:54;34.30;;;20.48;;
65691;SDS011;52411;52.716;6.696;2022-10-30T08:38:21;41.95;;;21.63;;
65691;SDS011;52411;52.716;6.696;2022-10-30T08:40:47;37.83;;;20.20;;
65691;SDS011;52411;52.716;6.696;2022-10-30T08:43:13;35.78;;;20.02;;
65691;SDS011;52411;52.716;6.696;2022-10-30T08:45:39;39.45;;;20.52;;
65691;SDS011;52411;52.716;6.696;2022-10-30T08:48:05;36.63;;;19.17;;
65691;SDS011;52411;52.716;6.696;2022-10-30T08:50:34;34.40;;;19.75;;
65691;SDS011;52411;52.716;6.696;2022-10-30T08:53:04;34.10;;;19.15;;
65691;SDS011;52411;52.716;6.696;2022-10-30T08:57:57;40.17;;;18.70;;
65691;SDS011;52411;52.716;6.696;2022-10-30T09:00:23;37.10;;;19.80;;
65691;SDS011;52411;52.716;6.696;2022-10-30T09:02:49;32.45;;;19.92;;
65691;SDS011;52411;52.716;6.696;2022-10-30T09:05:15;34.67;;;18.88;;
65691;SDS011;52411;52.716;6.696;2022-10-30T09:07:40;34.42;;;19.38;;
65691;SDS011;52411;52.716;6.696;2022-10-30T09:10:06;37.72;;;20.35;;
65691;SDS011;52411;52.716;6.696;2022-10-30T09:12:32;36.85;;;20.35;;
65691;SDS011;52411;52.716;6.696;2022-10-30T09:14:58;31.23;;;19.70;;
65691;SDS011;52411;52.716;6.696;2022-10-30T09:17:24;35.58;;;19.50;;
65691;SDS011;52411;52.716;6.696;2022-10-30T09:19:49;35.58;;;19.98;;
65691;SDS011;52411;52.716;6.696;2022-10-30T09:22:15;33.70;;;21.05;;
65691;SDS011;52411;52.716;6.696;2022-10-30T09:24:41;43.17;;;21.85;;
65691;SDS011;52411;52.716;6.696;2022-10-30T09:27:06;40.33;;;21.20;;
65691;SDS011;52411;52.716;6.696;2022-10-30T09:29:32;38.40;;;21.20;;
65691;SDS011;52411;52.716;6.696;2022-10-30T09:31:58;40.97;;;21.83;;
65691;SDS011;52411;52.716;6.696;2022-10-30T09:34:24;37.67;;;21.05;;
65691;SDS011;52411;52.716;6.696;2022-10-30T09:36:51;43.42;;;19.73;;
65691;SDS011;52411;52.716;6.696;2022-10-30T09:39:16;34.42;;;19.38;;
65691;SDS011;52411;52.716;6.696;2022-10-30T09:52:41;33.33;;;19.23;;
65691;SDS011;52411;52.716;6.696;2022-10-30T09:55:31;38.05;;;20.05;;
65691;SDS011;52411;52.716;6.696;2022-10-30T10:00:52;33.25;;;18.80;;
65691;SDS011;52411;52.716;6.696;2022-10-30T10:06:11;33.83;;;19.98;;
65691;SDS011;52411;52.716;6.696;2022-10-30T10:08:47;31.73;;;19.50;;
65691;SDS011;52411;52.716;6.696;2022-10-30T10:11:39;39.30;;;19.17;;
65691;SDS011;52411;52.716;6.696;2022-10-30T10:14:14;31.90;;;18.88;;
65691;SDS011;52411;52.716;6.696;2022-10-30T10:16:43;33.17;;;19.15;;
65691;SDS011;52411;52.716;6.696;2022-10-30T10:21:59;33.60;;;18.30;;
65691;SDS011;52411;52.716;6.696;2022-10-30T10:24:31;37.10;;;19.55;;
65691;SDS011;52411;52.716;6.696;2022-10-30T10:40:43;36.20;;;18.77;;
65691;SDS011;52411;52.716;6.696;2022-10-30T10:45:45;33.03;;;19.10;;
65691;SDS011;52411;52.716;6.696;2022-10-30T10:51:05;37.17;;;20.20;;
65691;SDS011;52411;52.716;6.696;2022-10-30T10:53:43;35.30;;;18.05;;
65691;SDS011;52411;52.716;6.696;2022-10-30T10:56:17;38.83;;;23.75;;
65691;SDS011;52411;52.716;6.696;2022-10-30T10:58:50;30.75;;;19.50;;
65691;SDS011;52411;52.716;6.696;2022-10-30T11:01:25;36.00;;;19.02;;
65691;SDS011;52411;52.716;6.696;2022-10-30T11:04:19;33.05;;;19.15;;
65691;SDS011;52411;52.716;6.696;2022-10-30T11:06:55;30.95;;;17.88;;
65691;SDS011;52411;52.716;6.696;2022-10-30T11:09:22;31.38;;;18.90;;
65691;SDS011;52411;52.716;6.696;2022-10-30T11:11:51;34.00;;;19.23;;
65691;SDS011;52411;52.716;6.696;2022-10-30T11:14:19;35.03;;;19.10;;
65691;SDS011;52411;52.716;6.696;2022-10-30T11:17:01;46.55;;;19.45;;
65691;SDS011;52411;52.716;6.696;2022-10-30T11:19:34;33.95;;;18.15;;
65691;SDS011;52411;52.716;6.696;2022-10-30T11:22:00;29.13;;;18.83;;
65691;SDS011;52411;52.716;6.696;2022-10-30T11:29:48;34.03;;;18.58;;
65691;SDS011;52411;52.716;6.696;2022-10-30T11:32:21;29.58;;;16.10;;
65691;SDS011;52411;52.716;6.696;2022-10-30T11:34:58;30.52;;;16.38;;
65691;SDS011;52411;52.716;6.696;2022-10-30T11:37:37;29.98;;;17.67;;
65691;SDS011;52411;52.716;6.696;2022-10-30T11:42:42;35.17;;;17.52;;
65691;SDS011;52411;52.716;6.696;2022-10-30T11:45:15;31.45;;;17.40;;
65691;SDS011;52411;52.716;6.696;2022-10-30T11:47:44;29.10;;;16.88;;
65691;SDS011;52411;52.716;6.696;2022-10-30T11:50:15;29.20;;;16.10;;
65691;SDS011;52411;52.716;6.696;2022-10-30T11:52:50;38.03;;;17.35;;
65691;SDS011;52411;52.716;6.696;2022-10-30T11:57:49;32.83;;;18.27;;
65691;SDS011;52411;52.716;6.696;2022-10-30T12:02:48;36.10;;;17.98;;
65691;SDS011;52411;52.716;6.696;2022-10-30T12:07:50;32.95;;;18.65;;
65691;SDS011;52411;52.716;6.696;2022-10-30T12:10:23;28.27;;;17.90;;
65691;SDS011;52411;52.716;6.696;2022-10-30T12:12:49;31.33;;;17.83;;
65691;SDS011;52411;52.716;6.696;2022-10-30T12:17:52;31.08;;;17.17;;
65691;SDS011;52411;52.716;6.696;2022-10-30T12:20:29;30.25;;;18.00;;
65691;SDS011;52411;52.716;6.696;2022-10-30T12:22:56;34.90;;;17.40;;
65691;SDS011;52411;52.716;6.696;2022-10-30T12:25:24;32.72;;;17.30;;
65691;SDS011;52411;52.716;6.696;2022-10-30T12:28:00;35.17;;;17.60;;
65691;SDS011;52411;52.716;6.696;2022-10-30T12:30:31;31.33;;;17.08;;
65691;SDS011;52411;52.716;6.696;2022-10-30T12:33:19;30.83;;;17.00;;
65691;SDS011;52411;52.716;6.696;2022-10-30T12:35:54;34.58;;;17.13;;
65691;SDS011;52411;52.716;6.696;2022-10-30T12:38:44;29.23;;;16.77;;
65691;SDS011;52411;52.716;6.696;2022-10-30T12:41:35;30.08;;;16.48;;
65691;SDS011;52411;52.716;6.696;2022-10-30T12:44:15;29.20;;;16.73;;
65691;SDS011;52411;52.716;6.696;2022-10-30T12:46:54;28.73;;;18.23;;
65691;SDS011;52411;52.716;6.696;2022-10-30T12:52:25;30.00;;;19.08;;
65691;SDS011;52411;52.716;6.696;2022-10-30T12:55:08;30.13;;;17.38;;
65691;SDS011;52411;52.716;6.696;2022-10-30T12:57:52;37.00;;;17.95;;
65691;SDS011;52411;52.716;6.696;2022-10-30T13:00:19;34.70;;;17.92;;
65691;SDS011;52411;52.716;6.696;2022-10-30T13:12:56;36.20;;;18.20;;
65691;SDS011;52411;52.716;6.696;2022-10-30T13:15:28;31.88;;;18.30;;
65691;SDS011;52411;52.716;6.696;2022-10-30T13:17:58;27.95;;;17.20;;
65691;SDS011;52411;52.716;6.696;2022-10-30T13:20:30;30.20;;;17.35;;
65691;SDS011;52411;52.716;6.696;2022-10-30T13:23:10;29.65;;;16.67;;
65691;SDS011;52411;52.716;6.696;2022-10-30T13:25:54;30.77;;;17.73;;
65691;SDS011;52411;52.716;6.696;2022-10-30T13:28:31;35.38;;;17.42;;
65691;SDS011;52411;52.716;6.696;2022-10-30T13:31:16;33.17;;;17.48;;
65691;SDS011;52411;52.716;6.696;2022-10-30T13:36:49;32.58;;;17.42;;
65691;SDS011;52411;52.716;6.696;2022-10-30T13:45:02;35.80;;;16.73;;
65691;SDS011;52411;52.716;6.696;2022-10-30T13:47:40;30.30;;;15.70;;
65691;SDS011;52411;52.716;6.696;2022-10-30T13:52:52;31.27;;;15.73;;
65691;SDS011;52411;52.716;6.696;2022-10-30T13:55:22;30.57;;;16.40;;
65691;SDS011;52411;52.716;6.696;2022-10-30T13:57:54;28.10;;;17.08;;
65691;SDS011;52411;52.716;6.696;2022-10-30T14:11:32;28.98;;;17.30;;
65691;SDS011;52411;52.716;6.696;2022-10-30T14:17:14;36.00;;;18.20;;
65691;SDS011;52411;52.716;6.696;2022-10-30T14:22:28;35.15;;;17.92;;
65691;SDS011;52411;52.716;6.696;2022-10-30T14:24:55;33.45;;;17.92;;
65691;SDS011;52411;52.716;6.696;2022-10-30T14:27:25;34.10;;;18.40;;
65691;SDS011;52411;52.716;6.696;2022-10-30T14:29:53;32.78;;;18.02;;
65691;SDS011;52411;52.716;6.696;2022-10-30T14:39:48;31.60;;;17.85;;
65691;SDS011;52411;52.716;6.696;2022-10-30T14:45:10;28.63;;;16.63;;
65691;SDS011;52411;52.716;6.696;2022-10-30T15:01:58;31.60;;;17.02;;
65691;SDS011;52411;52.716;6.696;2022-10-30T15:07:26;29.40;;;15.98;;
65691;SDS011;52411;52.716;6.696;2022-10-30T15:13:05;31.33;;;17.80;;
65691;SDS011;52411;52.716;6.696;2022-10-30T15:15:55;32.55;;;18.38;;
65691;SDS011;52411;52.716;6.696;2022-10-30T15:18:25;29.25;;;18.27;;
65691;SDS011;52411;52.716;6.696;2022-10-30T15:20:52;32.13;;;17.95;;
65691;SDS011;52411;52.716;6.696;2022-10-30T15:23:29;27.95;;;16.77;;
65691;SDS011;52411;52.716;6.696;2022-10-30T15:25:58;35.10;;;16.90;;
65691;SDS011;52411;52.716;6.696;2022-10-30T15:28:27;28.08;;;16.15;;
65691;SDS011;52411;52.716;6.696;2022-10-30T15:31:05;32.33;;;15.93;;
65691;SDS011;52411;52.716;6.696;2022-10-30T15:33:35;26.05;;;15.38;;
65691;SDS011;52411;52.716;6.696;2022-10-30T15:36:02;30.02;;;16.42;;
65691;SDS011;52411;52.716;6.696;2022-10-30T15:38:28;30.52;;;16.08;;
65691;SDS011;52411;52.716;6.696;2022-10-30T15:40:56;32.95;;;17.63;;
65691;SDS011;52411;52.716;6.696;2022-10-30T15:43:33;26.35;;;16.83;;
65691;SDS011;52411;52.716;6.696;2022-10-30T15:46:01;28.20;;;17.33;;
65691;SDS011;52411;52.716;6.696;2022-10-30T15:48:32;29.85;;;17.50;;
65691;SDS011;52411;52.716;6.696;2022-10-30T15:56:09;33.35;;;16.15;;
65691;SDS011;52411;52.716;6.696;2022-10-30T15:58:52;28.45;;;16.48;;
65691;SDS011;52411;52.716;6.696;2022-10-30T16:01:23;31.88;;;15.45;;
65691;SDS011;52411;52.716;6.696;2022-10-30T16:04:18;30.50;;;15.48;;
65691;SDS011;52411;52.716;6.696;2022-10-30T16:06:52;33.17;;;16.02;;
65691;SDS011;52411;52.716;6.696;2022-10-30T16:09:20;31.02;;;16.13;;
65691;SDS011;52411;52.716;6.696;2022-10-30T16:11:47;34.65;;;16.65;;
65691;SDS011;52411;52.716;6.696;2022-10-30T16:14:19;31.40;;;16.75;;
65691;SDS011;52411;52.716;6.696;2022-10-30T16:16:47;32.22;;;16.55;;
65691;SDS011;52411;52.716;6.696;2022-10-30T16:19:17;36.03;;;16.92;;
65691;SDS011;52411;52.716;6.696;2022-10-30T16:21:54;32.95;;;17.05;;
65691;SDS011;52411;52.716;6.696;2022-10-30T16:24:24;26.70;;;15.93;;
65691;SDS011;52411;52.716;6.696;2022-10-30T16:29:42;33.72;;;18.02;;
65691;SDS011;52411;52.716;6.696;2022-10-30T16:32:22;34.20;;;18.08;;
65691;SDS011;52411;52.716;6.696;2022-10-30T16:34:49;29.67;;;17.95;;
65691;SDS011;52411;52.716;6.696;2022-10-30T16:39:48;35.03;;;17.48;;
65691;SDS011;52411;52.716;6.696;2022-10-30T16:42:19;30.08;;;16.65;;
65691;SDS011;52411;52.716;6.696;2022-10-30T16:44:46;28.87;;;16.53;;
65691;SDS011;52411;52.716;6.696;2022-10-30T16:49:56;36.35;;;18.08;;
65691;SDS011;52411;52.716;6.696;2022-10-30T16:52:24;35.10;;;17.08;;
65691;SDS011;52411;52.716;6.696;2022-10-30T16:54:58;33.58;;;17.88;;
65691;SDS011;52411;52.716;6.696;2022-10-30T16:57:26;31.92;;;17.55;;
65691;SDS011;52411;52.716;6.696;2022-10-30T16:59:54;31.40;;;18.48;;
65691;SDS011;52411;52.716;6.696;2022-10-30T17:02:22;29.70;;;17.98;;
65691;SDS011;52411;52.716;6.696;2022-10-30T17:04:52;35.33;;;18.33;;
65691;SDS011;52411;52.716;6.696;2022-10-30T17:07:26;30.95;;;18.65;;
65691;SDS011;52411;52.716;6.696;2022-10-30T17:09:53;34.78;;;20.20;;
65691;SDS011;52411;52.716;6.696;2022-10-30T17:12:21;37.60;;;18.98;;